Latest Weather Observations for Gympie

IDQ60901

Issued at 8:41 pm EST Sunday 16 June 2019 (issued every 10 minutes, with the page automatically refreshed every 10 minutes)

About weather observations | Map of Brisbane area stations | Latest observations for Brisbane area | Other Formats
Station Details ID: 040093 Name: GYMPIE Lat: -26.18 Lon: 152.64 Height: 64.5 m
Data from the previous 72 hours. | See also: Recent months at Gympie
Date/Time
EST
Temp
°C
App
Temp
°C
Dew
Point
°C
Rel
Hum
%
Delta-T
°C
Wind Press
QNH
hPa
Press
MSL
hPa
Rain since
9am
mm
Dir  Spd
km/h
Gust
km/h
Spd
kts
Gust
kts
16/08:30pm 18.5 19.5 16.3 87 1.3 S 6 13 3 7 1018.0 1018.0 0.2
16/08:00pm 19.3 20.7 16.3 83 1.8 NW 4 9 2 5 1017.7 1017.7 0.0
16/07:30pm 19.6 20.7 16.6 83 1.8 N 6 9 3 5 1017.1 1017.1 0.0
16/07:00pm 19.6 21.0 16.3 81 2.0 N 4 7 2 4 1016.7 1016.7 0.0
16/06:30pm 20.0 21.4 16.4 80 2.2 NNE 4 6 2 3 1016.6 1016.6 0.0
16/06:00pm 20.3 21.9 16.9 81 2.1 NNE 4 6 2 3 1016.4 1016.4 0.0
16/05:30pm 21.2 22.3 17.0 77 2.6 NNE 7 11 4 6 1016.1 1016.1 0.0
16/05:00pm 21.7 23.9 16.4 72 3.2 CALM 0 0 0 0 1015.7 1015.6 0.0
16/04:30pm 22.6 24.0 16.4 68 3.8 N 4 6 2 3 1015.6 1015.5 0.0
16/04:00pm 23.8 24.2 16.3 63 4.6 N 9 15 5 8 1015.6 1015.5 0.0
16/03:30pm 24.2 25.1 16.5 62 4.7 N 7 13 4 7 1015.8 1015.7 0.0
16/03:00pm 24.5 25.4 16.7 61 4.8 NNW 7 13 4 7 1015.9 1015.9 0.0
16/02:30pm 24.5 25.6 17.2 63 4.5 NNW 7 15 4 8 1015.9 1015.9 0.0
16/02:00pm 24.4 25.5 16.6 61 4.8 NNW 6 13 3 7 1016.2 1016.2 0.0
16/01:30pm 25.1 26.4 17.6 63 4.7 NNW 7 13 4 7 1016.5 1016.5 0.0
16/01:00pm 23.9 24.2 16.9 65 4.3 N 11 19 6 10 1017.0 1017.0 0.0
16/12:30pm 23.7 24.9 17.4 68 3.9 NNW 7 15 4 8 1017.6 1017.6 0.0
16/12:00pm 23.4 23.9 17.4 69 3.7 NNW 11 19 6 10 1018.5 1018.5 0.0
16/11:30am 22.6 23.9 17.5 73 3.2 NNW 7 13 4 7 1018.8 1018.8 0.0
16/11:00am 22.0 22.4 17.2 74 2.9 NNW 11 17 6 9 1019.2 1019.2 0.0
16/10:30am 21.8 22.9 18.0 79 2.4 NNW 9 15 5 8 1019.7 1019.7 0.0
16/10:00am 20.5 23.6 18.6 89 1.2 CALM 0 4 0 2 1020.0 1020.0 0.0
16/09:30am 18.9 21.8 18.1 95 0.5 CALM 0 0 0 0 1020.2 1020.2 0.0
16/09:00am 17.1 19.5 17.1 100 0.0 CALM 0 0 0 0 1020.4 1020.4 0.2
16/08:30am 15.0 16.6 15.0 100 0.0 CALM 0 0 0 0 1020.0 1020.0 0.2
16/08:00am 14.2 15.5 14.2 100 0.0 CALM 0 0 0 0 1019.7 1019.7 0.2
16/07:30am 13.8 15.0 13.8 100 0.0 CALM 0 0 0 0 1019.5 1019.5 0.2
16/07:00am 13.6 14.7 13.6 100 0.0 CALM 0 0 0 0 1019.4 1019.4 0.2
16/06:30am 13.1 14.1 13.1 100 0.0 CALM 0 0 0 0 1019.0 1019.0 0.2
16/06:00am 13.1 14.1 13.1 100 0.0 CALM 0 0 0 0 1018.9 1018.9 0.2
16/05:30am 12.8 13.7 12.8 100 0.0 CALM 0 0 0 0 1018.6 1018.6 0.2
16/05:00am 12.7 13.5 12.7 100 0.0 CALM 0 0 0 0 1018.4 1018.4 0.2
16/04:30am 12.4 13.2 12.4 100 0.0 CALM 0 0 0 0 1018.1 1018.1 0.2
16/04:00am 12.2 12.9 12.2 100 0.0 CALM 0 0 0 0 1018.0 1018.0 0.0
16/03:30am 12.2 12.9 12.2 100 0.0 CALM 0 0 0 0 1018.0 1018.0 0.0
16/03:00am 12.2 12.9 12.2 100 0.0 CALM 0 0 0 0 1018.0 1018.0 0.0
16/02:30am 12.2 12.8 12.0 99 0.1 CALM 0 0 0 0 1018.3 1018.3 0.0
16/02:00am 12.3 13.0 12.1 99 0.1 CALM 0 2 0 1 1018.4 1018.4 0.0
16/01:30am 12.9 13.7 12.7 99 0.1 CALM 0 0 0 0 1018.6 1018.6 0.0
16/01:00am 12.9 13.7 12.7 99 0.1 CALM 0 0 0 0 1018.6 1018.6 0.0
16/12:30am 12.9 13.7 12.6 98 0.2 CALM 0 0 0 0 1018.8 1018.8 0.0
16/12:00am 13.5 14.2 13.3 99 0.1 N 2 6 1 3 1018.8 1018.8 0.0
 
Date/Time
EST
Temp
°C
App
Temp
°C
Dew
Point
°C
Rel
Hum
%
Delta-T
°C
Wind Press
QNH
hPa
Press
MSL
hPa
Rain since
9am
mm
Dir  Spd
km/h
Gust
km/h
Spd
kts
Gust
kts
15/11:30pm 13.7 14.8 13.5 99 0.1 CALM 0 0 0 0 1019.2 1019.2 0.0
15/11:00pm 12.9 13.6 12.3 96 0.3 CALM 0 0 0 0 1019.1 1019.1 0.0
15/10:30pm 14.0 15.1 13.4 96 0.3 CALM 0 0 0 0 1019.3 1019.3 0.0
15/10:00pm 14.6 15.9 14.1 97 0.3 CALM 0 0 0 0 1019.3 1019.3 0.0
15/09:30pm 14.4 15.6 13.8 96 0.3 CALM 0 0 0 0 1019.2 1019.2 0.0
15/09:00pm 15.1 16.5 14.5 96 0.3 CALM 0 0 0 0 1019.0 1019.0 0.0
15/08:30pm 15.6 16.8 14.8 95 0.5 N 2 4 1 2 1018.9 1018.9 0.0
15/08:00pm 16.0 17.5 14.7 92 0.7 CALM 0 0 0 0 1018.7 1018.7 0.0
15/07:30pm 17.3 19.2 15.8 91 0.9 CALM 0 0 0 0 1018.4 1018.4 0.0
15/07:00pm 18.3 20.4 16.3 88 1.2 CALM 0 0 0 0 1018.2 1018.2 0.0
15/06:30pm 18.1 19.5 15.5 85 1.5 N 2 6 1 3 1017.6 1017.6 0.0
15/06:00pm 18.9 20.1 15.8 82 1.8 N 4 6 2 3 1017.4 1017.4 0.0
15/05:30pm 21.1 23.1 15.9 72 3.1 CALM 0 0 0 0 1017.2 1017.2 0.0
15/05:00pm 22.6 23.7 15.7 65 4.2 NNE 4 7 2 4 1016.8 1016.8 0.0
15/04:30pm 24.0 24.5 15.0 57 5.4 N 6 7 3 4 1016.7 1016.7 0.0
15/04:00pm 25.0 26.0 15.3 55 5.9 N 4 6 2 3 1016.5 1016.5 0.0
15/03:30pm 24.7 24.8 14.5 53 6.1 N 7 11 4 6 1016.5 1016.5 0.0
15/03:00pm 25.4 26.6 14.8 52 6.4 NNW 2 9 1 5 1016.4 1016.4 0.0
15/02:30pm 25.0 24.9 13.9 50 6.6 NNW 7 11 4 6 1016.3 1016.3 0.0
15/02:00pm 24.9 25.2 14.4 52 6.2 N 6 11 3 6 1016.8 1016.8 0.0
15/01:30pm 24.7 25.0 15.1 55 5.8 NW 7 11 4 6 1017.0 1017.0 0.0
15/01:00pm 24.1 24.2 14.5 55 5.7 N 7 11 4 6 1017.3 1017.3 0.0
15/12:30pm 24.2 24.4 14.6 55 5.7 NNW 7 13 4 7 1017.8 1017.8 0.0
15/12:00pm 23.8 23.9 14.5 56 5.5 NNW 7 13 4 7 1018.1 1018.1 0.0
15/11:30am 22.4 21.8 14.5 61 4.7 N 11 17 6 9 1018.7 1018.7 0.0
15/11:00am 22.6 23.3 15.7 65 4.1 NNE 6 13 3 7 1019.0 1019.0 0.0
15/10:30am 19.9 22.1 16.5 81 2.1 CALM 0 0 0 0 1019.6 1019.6 0.0
15/10:00am 18.1 20.3 16.6 91 0.9 CALM 0 0 0 0 1020.0 1020.0 0.0
15/09:30am 16.3 18.4 16.3 100 0.0 CALM 0 0 0 0 1020.1 1020.1 0.0
15/09:00am 14.3 15.7 14.3 100 0.0 CALM 0 0 0 0 1020.3 1020.3 -
15/08:30am 13.5 14.6 13.5 100 0.0 CALM 0 0 0 0 1020.0 1020.0 -
15/08:00am 12.8 13.7 12.8 100 0.0 CALM 0 0 0 0 1019.9 1019.9 -
15/07:30am 12.1 12.8 12.1 100 0.0 CALM 0 0 0 0 1019.5 1019.5 -
15/07:00am 11.7 12.2 11.7 100 0.0 CALM 0 0 0 0 1019.3 1019.3 -
15/06:30am 11.4 11.8 11.4 100 0.0 CALM 0 0 0 0 1018.7 1018.7 -
15/06:00am 11.2 11.6 11.2 100 0.0 CALM 0 0 0 0 1018.2 1018.2 -
15/05:30am 11.6 12.1 11.6 100 0.0 CALM 0 0 0 0 1018.1 1018.1 -
15/05:00am 11.4 11.8 11.4 100 0.0 CALM 0 0 0 0 1017.8 1017.8 -
15/04:30am 11.4 11.8 11.4 100 0.0 CALM 0 0 0 0 1017.7 1017.7 -
15/04:00am 11.9 12.5 11.9 100 0.0 CALM 0 0 0 0 1017.5 1017.5 -
15/03:30am 11.6 12.1 11.6 100 0.0 CALM 0 2 0 1 1017.7 1017.7 -
15/03:00am 12.2 12.9 12.2 100 0.0 CALM 0 4 0 2 1017.8 1017.8 0.0
15/02:30am 12.3 13.0 12.3 100 0.0 CALM 0 0 0 0 1017.9 1017.9 -
15/02:00am 11.7 12.2 11.5 99 0.1 CALM 0 0 0 0 1017.9 1017.9 -
15/01:30am 11.7 12.1 11.4 98 0.2 CALM 0 0 0 0 1017.9 1017.9 -
15/01:00am 12.6 13.4 12.4 99 0.1 CALM 0 0 0 0 1018.1 1018.1 -
15/12:30am 12.5 13.2 12.2 98 0.2 CALM 0 0 0 0 1018.4 1018.4 -
15/12:00am 13.4 14.4 13.1 98 0.2 CALM 0 0 0 0 1018.6 1018.6 -
 
Date/Time
EST
Temp
°C
App
Temp
°C
Dew
Point
°C
Rel
Hum
%
Delta-T
°C
Wind Press
QNH
hPa
Press
MSL
hPa
Rain since
9am
mm
Dir  Spd
km/h
Gust
km/h
Spd
kts
Gust
kts
14/11:30pm 13.1 13.9 12.6 97 0.3 CALM 0 0 0 0 1018.8 1018.8 -
14/11:00pm 13.4 14.3 12.9 97 0.3 CALM 0 0 0 0 1019.0 1019.0 -
14/10:30pm 13.9 15.0 13.4 97 0.3 CALM 0 0 0 0 1019.1 1019.1 -
14/10:00pm 14.6 15.2 14.3 98 0.2 NNE 4 6 2 3 1018.9 1018.9 -
14/09:30pm 14.6 15.8 13.8 95 0.4 CALM 0 0 0 0 1019.0 1019.0 -
14/09:00pm 15.1 16.5 14.3 95 0.5 CALM 0 0 0 0 1019.0 1019.0 0.0
14/08:30pm 15.5 16.9 14.5 94 0.6 CALM 0 0 0 0 1018.8 1018.8 -
14/08:00pm 15.9 16.9 14.4 91 0.9 SW 2 2 1 1 1018.6 1018.6 -
14/07:30pm 16.3 17.8 14.7 90 0.9 CALM 0 0 0 0 1018.5 1018.5 -
14/07:00pm 17.3 19.1 15.6 90 1.0 CALM 0 0 0 0 1018.0 1018.0 -
14/06:30pm 17.7 19.4 15.3 86 1.4 CALM 0 0 0 0 1017.9 1017.9 -
14/06:00pm 19.1 20.6 15.6 80 2.1 N 2 2 1 1 1017.5 1017.5 -
14/05:30pm 20.1 21.1 15.3 74 2.8 N 4 4 2 2 1017.2 1017.2 -
14/05:00pm 22.4 23.6 15.0 63 4.4 N 2 4 1 2 1016.8 1016.8 -
14/04:30pm 24.4 25.1 14.5 54 5.9 N 4 6 2 3 1016.6 1016.6 -
14/04:00pm 25.4 26.2 14.8 52 6.4 NW 4 7 2 4 1016.4 1016.4 -
14/03:30pm 26.0 27.4 15.4 52 6.4 NNW 2 6 1 3 1016.3 1016.3 -
14/03:00pm 25.6 26.1 14.1 49 6.8 N 4 9 2 5 1016.3 1016.3 -
14/02:30pm 25.4 26.0 14.2 50 6.7 N 4 9 2 5 1016.2 1016.2 -
14/02:00pm 25.5 26.6 15.5 54 6.1 N 4 7 2 4 1016.5 1016.5 -
14/01:30pm 25.8 26.8 14.3 49 6.9 NNW 2 4 1 2 1016.6 1016.6 -
14/01:00pm 24.6 25.7 14.7 54 5.9 W 2 6 1 3 1017.0 1017.0 -
14/12:30pm 24.3 25.1 15.8 59 5.2 WNW 6 11 3 6 1017.5 1017.5 -
14/12:00pm 23.7 - 16.0 62 4.7 - - - - - 1018.0 1018.0 -
14/11:30am 22.8 24.6 17.3 71 3.4 NNW 4 7 2 4 1018.5 1018.5 -
14/11:00am 20.6 22.9 17.6 83 1.8 ENE 2 6 1 3 1019.2 1019.2 -
14/10:30am 17.1 19.5 17.1 100 0.0 CALM 0 0 0 0 1019.7 1019.7 0.0
14/10:00am 15.3 17.0 15.3 100 0.0 CALM 0 4 0 2 1019.9 1019.9 0.0
14/09:30am 14.3 15.7 14.3 100 0.0 CALM 0 0 0 0 1020.2 1020.2 0.0
14/09:00am 13.3 14.3 13.3 100 0.0 CALM 0 0 0 0 1020.3 1020.3 0.4
14/08:30am 12.8 13.7 12.8 100 0.0 CALM 0 0 0 0 1020.3 1020.3 0.4
14/08:00am 12.2 12.9 12.2 100 0.0 CALM 0 0 0 0 1020.2 1020.2 0.4
14/07:30am 11.9 12.5 11.9 100 0.0 CALM 0 0 0 0 1020.1 1020.1 0.4
14/07:00am 11.7 12.2 11.7 100 0.0 CALM 0 0 0 0 1019.5 1019.5 0.4
14/06:30am 11.8 12.0 11.8 100 0.0 WSW 2 4 1 2 1019.3 1019.3 0.4
14/06:00am 12.0 12.6 12.0 100 0.0 CALM 0 0 0 0 1018.8 1018.8 0.4
14/05:30am 12.1 12.8 12.1 100 0.0 CALM 0 0 0 0 1018.4 1018.4 0.4
14/05:00am 12.2 12.9 12.2 100 0.0 CALM 0 0 0 0 1018.4 1018.4 0.4
14/04:30am 12.1 12.8 12.1 100 0.0 CALM 0 0 0 0 1018.2 1018.2 0.4
14/04:00am 12.3 13.0 12.3 100 0.0 CALM 0 0 0 0 1018.1 1018.1 0.4
14/03:30am 12.4 13.2 12.4 100 0.0 CALM 0 0 0 0 1018.3 1018.3 0.4
14/03:00am 12.4 13.2 12.4 100 0.0 CALM 0 0 0 0 1018.2 1018.2 0.4
14/02:30am 12.4 13.2 12.4 100 0.0 CALM 0 0 0 0 1018.4 1018.4 0.2
14/02:00am 12.6 13.4 12.6 100 0.0 CALM 0 0 0 0 1018.4 1018.4 0.2
14/01:30am 12.8 13.3 12.8 100 0.0 WSW 2 6 1 3 1018.9 1018.9 0.2
14/01:00am 12.9 13.8 12.9 100 0.0 CALM 0 0 0 0 1018.8 1018.8 0.2
14/12:30am 13.0 13.9 13.0 100 0.0 CALM 0 0 0 0 1019.3 1019.3 0.2
14/12:00am 12.7 13.5 12.5 99 0.1 CALM 0 0 0 0 1019.6 1019.6 0.2
 
Date/Time
EST
Temp
°C
App
Temp
°C
Dew
Point
°C
Rel
Hum
%
Delta-T
°C
Wind Press
QNH
hPa
Press
MSL
hPa
Rain since
9am
mm
Dir  Spd
km/h
Gust
km/h
Spd
kts
Gust
kts
13/11:30pm 12.8 13.6 12.6 99 0.1 CALM 0 0 0 0 1020.0 1020.0 0.2
13/11:00pm 12.7 13.5 12.5 99 0.1 CALM 0 0 0 0 1020.0 1020.0 0.2
13/10:30pm 13.2 14.1 13.0 99 0.1 CALM 0 0 0 0 1020.1 1020.1 0.2
13/10:00pm 13.8 14.9 13.6 99 0.1 CALM 0 0 0 0 1020.0 1020.0 0.2
13/09:30pm 13.7 14.8 13.4 98 0.2 CALM 0 0 0 0 1019.8 1019.8 0.2
13/09:00pm 14.6 16.0 14.3 98 0.2 CALM 0 0 0 0 1019.6 1019.6 0.2

Latest Capital City Observations: Canberra | Sydney | Melbourne | Brisbane | Adelaide | Perth | Hobart | Darwin

Other formats

Comma delimited format used in spreadsheet applications
http://www.bom.gov.au/fwo/IDQ60901/IDQ60901.94566.axf

JavaScript Object Notation format (JSON) in row-major order
http://www.bom.gov.au/fwo/IDQ60901/IDQ60901.94566.json

Data quality

Most of these data are generated automatically and are frequently updated. Quality checks on data are not normally performed. It is possible for incorrect values to appear. Refer to information at About Latest Weather Observations and please check the disclaimer before using these data.